createdAt,value
2019-05-15T00:01:33.374Z,17.00
2019-05-15T00:04:06.326Z,17.80
2019-05-15T00:06:40.465Z,16.80
2019-05-15T00:09:12.570Z,17.83
2019-05-15T00:11:48.119Z,16.80
2019-05-15T00:14:18.351Z,16.73
2019-05-15T00:16:50.039Z,16.40
2019-05-15T00:19:21.464Z,17.77
2019-05-15T00:21:51.004Z,16.87
2019-05-15T00:24:20.750Z,17.37
2019-05-15T00:26:54.282Z,17.13
2019-05-15T00:29:28.746Z,17.53
2019-05-15T00:31:58.941Z,17.70
2019-05-15T00:34:28.643Z,16.90
2019-05-15T00:37:01.912Z,16.77
2019-05-15T00:39:31.666Z,16.47
2019-05-15T00:42:03.702Z,16.60
2019-05-15T00:44:38.633Z,17.67
2019-05-15T00:47:12.406Z,16.57
2019-05-15T00:49:42.143Z,16.80
2019-05-15T00:52:19.609Z,16.73
2019-05-15T00:54:50.309Z,17.13
2019-05-15T00:57:19.964Z,16.83
2019-05-15T00:59:52.561Z,16.70
2019-05-15T01:02:23.980Z,16.70
2019-05-15T01:04:53.596Z,16.77
2019-05-15T01:07:24.175Z,17.20
2019-05-15T01:09:53.938Z,16.37
2019-05-15T01:12:24.788Z,16.67
2019-05-15T01:14:54.386Z,17.23
2019-05-15T01:17:29.010Z,16.67
2019-05-15T01:19:58.723Z,16.07
2019-05-15T01:22:28.672Z,16.13
2019-05-15T01:25:04.326Z,15.87
2019-05-15T01:27:29.588Z,15.00
2019-05-15T01:29:59.255Z,15.47
2019-05-15T01:32:28.996Z,15.40
2019-05-15T01:34:58.541Z,15.27
2019-05-15T01:37:28.294Z,15.87
2019-05-15T01:39:58.182Z,15.47
2019-05-15T01:42:29.162Z,15.63
2019-05-15T01:45:01.076Z,14.83
2019-05-15T01:47:30.663Z,15.07
2019-05-15T01:50:01.581Z,15.00
2019-05-15T01:52:31.127Z,15.27
2019-05-15T01:55:02.293Z,16.00
2019-05-15T01:57:31.862Z,14.13
2019-05-15T02:00:04.228Z,16.20
2019-05-15T02:02:33.838Z,15.93
2019-05-15T02:05:03.660Z,15.53
2019-05-15T02:07:39.103Z,15.60
2019-05-15T02:10:08.906Z,15.63
2019-05-15T02:12:43.917Z,16.67
2019-05-15T02:15:19.044Z,17.00
2019-05-15T02:17:50.343Z,17.47
2019-05-15T02:20:21.981Z,15.93
2019-05-15T02:22:51.274Z,15.67
2019-05-15T02:25:20.913Z,15.83
2019-05-15T02:27:50.467Z,15.73
2019-05-15T02:30:30.179Z,15.90
2019-05-15T02:32:58.975Z,15.27
2019-05-15T02:35:29.632Z,15.33
2019-05-15T02:38:00.728Z,15.37
2019-05-15T02:40:31.390Z,16.63
2019-05-15T02:43:04.827Z,16.03
2019-05-15T02:45:37.736Z,16.93
2019-05-15T02:48:08.968Z,15.80
2019-05-15T02:50:40.619Z,15.83
2019-05-15T02:53:13.058Z,16.07
2019-05-15T02:55:42.596Z,15.67
2019-05-15T02:58:12.227Z,14.90
2019-05-15T03:00:48.368Z,16.03
2019-05-15T03:03:14.830Z,16.83
2019-05-15T03:05:51.914Z,16.43
2019-05-15T03:08:40.382Z,16.47
2019-05-15T03:11:18.892Z,16.20
2019-05-15T03:13:43.885Z,17.13
2019-05-15T03:16:19.078Z,16.70
2019-05-15T03:18:50.208Z,16.43
2019-05-15T03:21:20.119Z,16.57
2019-05-15T03:23:51.101Z,17.23
2019-05-15T03:26:20.827Z,16.57
2019-05-15T03:28:52.527Z,15.53
2019-05-15T03:31:43.451Z,16.67
2019-05-15T03:34:01.219Z,17.17
2019-05-15T03:36:31.637Z,16.37
2019-05-15T03:39:01.125Z,16.43
2019-05-15T03:41:33.215Z,15.83
2019-05-15T03:44:09.373Z,16.53
2019-05-15T03:46:40.170Z,16.10
2019-05-15T03:49:12.698Z,15.70
2019-05-15T03:51:45.848Z,16.57
2019-05-15T03:54:18.878Z,14.60
2019-05-15T03:56:52.375Z,16.20
2019-05-15T03:59:23.633Z,15.27
2019-05-15T04:01:55.189Z,14.87
2019-05-15T04:04:29.700Z,15.07
2019-05-15T04:07:09.009Z,14.67
2019-05-15T04:09:58.544Z,15.50
2019-05-15T04:12:29.015Z,16.00
2019-05-15T04:14:59.606Z,14.70
2019-05-15T04:17:33.767Z,14.57
2019-05-15T04:20:05.184Z,15.40
2019-05-15T04:22:40.615Z,14.73
2019-05-15T04:25:09.773Z,15.17
2019-05-15T04:27:42.992Z,15.90
2019-05-15T04:30:18.967Z,16.00
2019-05-15T04:32:53.290Z,15.93
2019-05-15T04:35:24.793Z,14.83
2019-05-15T04:37:59.398Z,15.33
2019-05-15T04:40:32.394Z,15.87
2019-05-15T04:43:04.461Z,15.07
2019-05-15T04:45:39.216Z,15.37
2019-05-15T04:48:10.117Z,15.30
2019-05-15T04:50:40.456Z,15.73
2019-05-15T04:53:11.101Z,14.40
2019-05-15T04:55:41.002Z,15.97
2019-05-15T04:58:10.821Z,14.17
2019-05-15T05:01:08.965Z,14.17
2019-05-15T05:03:39.316Z,14.80
2019-05-15T05:06:09.751Z,14.60
2019-05-15T05:08:40.036Z,14.10
2019-05-15T05:11:10.023Z,14.63
2019-05-15T05:13:39.723Z,15.07
2019-05-15T05:16:09.729Z,13.90
2019-05-15T05:18:41.471Z,14.67
2019-05-15T05:21:10.529Z,15.00
2019-05-15T05:23:40.001Z,14.27
2019-05-15T05:26:11.234Z,14.37
2019-05-15T05:28:40.852Z,15.23
2019-05-15T05:31:13.608Z,14.73
2019-05-15T05:33:41.523Z,14.00
2019-05-15T05:36:11.027Z,12.83
2019-05-15T05:38:40.493Z,14.17
2019-05-15T05:41:10.005Z,14.00
2019-05-15T05:43:39.605Z,14.20
2019-05-15T05:46:18.494Z,13.33
2019-05-15T05:48:44.287Z,12.87
2019-05-15T05:51:24.130Z,12.33
2019-05-15T05:53:58.865Z,13.73
2019-05-15T05:56:37.790Z,13.57
2019-05-15T05:59:12.259Z,13.07
2019-05-15T06:01:48.461Z,14.47
2019-05-15T06:04:18.768Z,13.57
2019-05-15T06:07:06.206Z,13.53
2019-05-15T06:09:27.792Z,13.43
2019-05-15T06:12:00.423Z,13.23
2019-05-15T08:16:32.247Z,12.13
2019-05-15T08:19:09.680Z,12.13
2019-05-15T08:21:45.418Z,12.27
2019-05-15T08:24:22.667Z,11.00
2019-05-15T08:27:00.063Z,11.83
2019-05-15T08:29:38.281Z,12.15
2019-05-15T08:34:58.686Z,12.00
2019-05-15T08:37:41.949Z,10.85
2019-05-15T08:40:43.768Z,10.95
2019-05-15T08:43:29.024Z,11.80
2019-05-15T08:46:04.004Z,11.53
2019-05-15T08:48:52.919Z,10.77
2019-05-15T08:51:33.438Z,11.65
2019-05-15T08:54:34.311Z,11.57
2019-05-15T08:57:04.234Z,11.45
2019-05-15T08:59:40.682Z,11.25
2019-05-15T09:02:28.674Z,11.83
2019-05-15T09:05:04.384Z,11.90
2019-05-15T09:07:38.328Z,12.33
2019-05-15T09:10:11.714Z,11.97
2019-05-15T09:12:54.320Z,11.33
2019-05-15T09:15:52.452Z,12.43
2019-05-15T09:18:12.370Z,12.28
2019-05-15T09:20:38.534Z,11.50
2019-05-15T09:23:08.938Z,11.75
2019-05-15T09:26:02.284Z,11.53
2019-05-15T09:28:32.383Z,11.10
2019-05-15T09:31:03.994Z,11.18
2019-05-15T09:33:42.116Z,11.22
2019-05-15T09:36:28.638Z,11.33
2019-05-15T09:39:04.907Z,11.05
2019-05-15T09:42:03.850Z,11.25
2019-05-15T09:44:15.312Z,11.33
2019-05-15T09:49:39.375Z,11.38
2019-05-15T09:52:35.139Z,11.03
2019-05-15T09:54:59.245Z,11.15
2019-05-15T09:57:40.373Z,10.73
2019-05-15T10:00:29.174Z,10.32
2019-05-15T10:02:49.407Z,10.55
2019-05-15T10:05:33.472Z,10.95
2019-05-15T10:08:09.160Z,10.15
2019-05-15T10:11:08.863Z,10.88
2019-05-15T10:13:54.862Z,10.60
2019-05-15T10:41:14.981Z,4.53
2019-05-15T10:44:00.250Z,4.45
2019-05-15T10:46:32.244Z,4.78
2019-05-15T10:49:12.412Z,5.27
2019-05-15T10:51:50.031Z,4.77
2019-05-15T10:54:21.391Z,5.08
2019-05-15T10:57:00.272Z,4.93
2019-05-15T10:59:28.359Z,5.00
2019-05-15T11:02:08.613Z,5.75
2019-05-15T11:04:40.840Z,6.10
2019-05-15T11:07:10.231Z,5.60
2019-05-15T11:09:48.912Z,5.87
2019-05-15T11:12:45.008Z,6.23
2019-05-15T11:15:03.872Z,6.03
2019-05-15T11:17:49.110Z,6.25
2019-05-15T11:20:15.409Z,6.47
2019-05-15T11:22:46.251Z,7.43
2019-05-15T11:25:20.953Z,6.30
2019-05-15T11:27:52.276Z,6.23
2019-05-15T11:30:31.533Z,6.60
2019-05-15T11:33:03.839Z,6.53
2019-05-15T11:35:56.732Z,6.28
2019-05-15T11:38:16.436Z,6.33
2019-05-15T11:40:58.215Z,5.50
2019-05-15T11:43:29.468Z,6.20
2019-05-15T11:46:11.647Z,6.15
2019-05-15T11:48:42.102Z,6.62
2019-05-15T11:51:23.652Z,6.40
2019-05-15T11:53:52.386Z,6.47
2019-05-15T11:56:21.857Z,5.92
2019-05-15T11:58:57.510Z,7.05
2019-05-15T12:01:39.181Z,8.67
2019-05-15T12:04:30.225Z,8.17
2019-05-15T12:06:59.621Z,8.68
2019-05-15T12:09:38.840Z,8.03
2019-05-15T12:12:17.930Z,9.28
2019-05-15T12:14:54.867Z,8.90
2019-05-15T12:17:34.241Z,8.78
2019-05-15T12:20:10.798Z,7.17
2019-05-15T12:22:48.352Z,7.60
2019-05-15T12:25:21.188Z,6.40
2019-05-15T12:28:03.973Z,6.83
2019-05-15T12:30:45.017Z,5.90
2019-05-15T12:33:19.171Z,6.62
2019-05-15T12:35:55.614Z,7.12
2019-05-15T12:38:50.030Z,7.60
2019-05-15T13:00:15.544Z,8.70
2019-05-15T13:02:49.260Z,8.70
2019-05-15T13:05:20.645Z,9.15
2019-05-15T13:07:59.917Z,8.00
2019-05-15T13:11:09.844Z,8.88
2019-05-15T13:13:37.600Z,7.67
2019-05-15T13:16:19.869Z,6.83
2019-05-15T13:19:00.754Z,7.13
2019-05-15T13:21:38.049Z,6.87
2019-05-15T13:24:10.620Z,6.30
2019-05-15T13:26:50.090Z,6.83
2019-05-15T13:29:41.113Z,6.90
2019-05-15T13:31:53.354Z,7.53
2019-05-15T13:34:32.512Z,7.25
2019-05-15T13:37:09.908Z,7.50
2019-05-15T13:39:42.132Z,7.95
2019-05-15T13:42:14.438Z,7.53
2019-05-15T13:44:47.981Z,7.10
2019-05-15T13:47:24.053Z,7.83
2019-05-15T13:49:58.544Z,7.58
2019-05-15T13:52:31.937Z,7.23
2019-05-15T13:55:03.041Z,7.70
2019-05-15T13:57:38.222Z,7.87
2019-05-15T14:00:13.907Z,7.75
2019-05-15T14:02:47.827Z,9.20
2019-05-15T14:05:16.617Z,7.40
2019-05-15T14:07:50.675Z,7.85
2019-05-15T14:10:19.196Z,9.93
2019-05-15T14:12:51.880Z,8.00
2019-05-15T14:15:27.056Z,7.30
2019-05-15T14:18:05.281Z,9.47
2019-05-15T14:20:34.965Z,10.30
2019-05-15T14:23:08.765Z,8.70
2019-05-15T14:25:38.787Z,8.05
2019-05-15T14:28:30.267Z,7.60
2019-05-15T14:30:55.040Z,8.33
2019-05-15T14:33:43.308Z,7.78
2019-05-15T14:36:08.576Z,9.73
2019-05-15T14:38:41.784Z,8.80
2019-05-15T14:41:29.094Z,8.60
2019-05-15T14:43:49.474Z,8.97
2019-05-15T14:46:23.212Z,9.50
2019-05-15T14:48:57.948Z,9.78
2019-05-15T14:52:15.150Z,10.43
2019-05-15T14:54:02.291Z,10.78
2019-05-15T14:56:46.173Z,10.38
2019-05-15T14:59:09.114Z,10.00
2019-05-15T15:01:44.475Z,10.85
2019-05-15T15:04:15.252Z,10.20
2019-05-15T15:06:50.655Z,10.72
2019-05-15T15:09:28.070Z,9.80
2019-05-15T15:12:01.454Z,11.03
2019-05-15T15:14:42.579Z,11.15
2019-05-15T15:17:16.172Z,12.30
2019-05-15T15:19:53.313Z,12.13
2019-05-15T15:22:24.254Z,11.57
2019-05-15T15:24:59.659Z,12.45
2019-05-15T15:30:11.335Z,12.47
2019-05-15T15:32:49.238Z,12.50
2019-05-15T15:35:52.716Z,14.25
2019-05-15T15:38:37.556Z,13.43
2019-05-15T15:41:00.513Z,12.70
2019-05-15T15:43:34.241Z,12.53
2019-05-15T15:46:14.251Z,14.23
2019-05-15T15:48:48.506Z,14.18
2019-05-15T15:51:21.419Z,14.93
2019-05-15T15:54:14.447Z,14.87
2019-05-15T15:56:45.459Z,15.40
2019-05-15T15:59:18.135Z,16.40
2019-05-15T16:02:05.013Z,16.35
2019-05-15T16:04:39.163Z,16.97
2019-05-15T16:07:09.653Z,16.52
2019-05-15T16:09:48.354Z,17.65
2019-05-15T16:12:28.259Z,17.95
2019-05-15T16:15:12.310Z,19.98
2019-05-15T16:17:43.316Z,18.70
2019-05-15T16:20:15.354Z,20.30
2019-05-15T16:22:48.109Z,19.97
2019-05-15T16:25:28.869Z,20.75
2019-05-15T16:28:03.863Z,23.98
2019-05-15T16:30:51.707Z,22.05
2019-05-15T16:33:23.382Z,22.62
2019-05-15T16:35:57.961Z,22.25
2019-05-15T16:38:41.525Z,23.77
2019-05-15T16:41:24.923Z,25.15
2019-05-15T16:44:23.768Z,24.47
2019-05-15T16:46:47.992Z,24.23
2019-05-15T16:49:19.143Z,31.97
2019-05-15T16:52:09.406Z,29.20
2019-05-15T16:54:53.641Z,28.10
2019-05-15T16:57:40.220Z,29.18
2019-05-15T17:00:19.199Z,28.38
2019-05-15T17:03:13.660Z,28.50
2019-05-15T17:05:40.862Z,28.70
2019-05-15T17:08:32.250Z,28.23
2019-05-15T17:12:27.960Z,28.40
2019-05-15T17:13:53.071Z,28.65
2019-05-15T17:16:47.979Z,29.77
2019-05-15T17:19:23.552Z,27.87
2019-05-15T17:25:10.842Z,26.75
2019-05-15T17:27:46.901Z,27.05
2019-05-15T17:30:29.278Z,25.45
2019-05-15T17:33:42.738Z,25.68
2019-05-15T17:36:24.550Z,25.88
2019-05-15T17:39:09.071Z,25.82
2019-05-15T17:41:41.946Z,27.22
2019-05-15T17:47:09.597Z,24.95
2019-05-15T17:49:48.039Z,24.63
2019-05-15T17:52:10.566Z,23.85
2019-05-15T17:55:04.864Z,22.02
2019-05-15T17:58:01.181Z,23.20
2019-05-15T18:00:59.701Z,22.98
2019-05-15T18:03:48.588Z,24.10
2019-05-15T18:06:40.050Z,23.07
2019-05-15T18:09:24.578Z,23.92
2019-05-15T18:12:24.932Z,24.32
2019-05-15T18:15:10.846Z,23.87
2019-05-15T18:18:29.613Z,24.57
2019-05-15T18:20:58.317Z,25.30
2019-05-15T18:23:48.573Z,24.75
2019-05-15T18:26:21.756Z,25.43
2019-05-15T18:29:03.161Z,27.87
2019-05-15T18:31:44.026Z,25.92
2019-05-15T18:34:20.368Z,26.10
2019-05-15T18:36:57.790Z,28.30
2019-05-15T18:42:05.265Z,25.75
2019-05-15T18:44:44.155Z,28.60
2019-05-15T18:48:50.713Z,27.82
2019-05-15T18:50:05.155Z,27.20
2019-05-15T18:52:33.684Z,25.50
2019-05-15T18:55:08.130Z,26.42
2019-05-15T18:57:48.476Z,25.23
2019-05-15T19:00:12.405Z,24.63
2019-05-15T19:02:41.958Z,25.15
2019-05-15T19:05:11.930Z,23.10
2019-05-15T19:07:41.409Z,24.35
2019-05-15T19:10:11.710Z,22.37
2019-05-15T19:12:43.621Z,22.65
2019-05-15T19:15:13.367Z,22.70
2019-05-15T19:17:42.863Z,21.07
2019-05-15T19:20:31.801Z,22.37
2019-05-15T19:23:03.146Z,22.87
2019-05-15T19:25:32.624Z,23.40
2019-05-15T19:28:02.195Z,22.02
2019-05-15T19:30:31.729Z,23.40
2019-05-15T19:33:01.607Z,23.32
2019-05-15T19:35:38.888Z,25.35
2019-05-15T19:38:22.749Z,26.77
2019-05-15T19:41:03.828Z,25.55
2019-05-15T19:43:58.290Z,27.15
2019-05-15T19:46:34.300Z,27.35
2019-05-15T19:49:05.435Z,27.73
2019-05-15T19:54:30.460Z,29.23
2019-05-15T19:57:44.960Z,29.95
2019-05-15T20:00:23.105Z,29.15
2019-05-15T20:02:57.591Z,31.25
2019-05-15T20:05:38.435Z,29.70
2019-05-15T20:08:15.313Z,28.32
2019-05-15T20:11:10.168Z,29.70
2019-05-15T20:13:40.917Z,27.98
2019-05-15T20:16:41.311Z,26.82
2019-05-15T20:18:51.417Z,29.35
2019-05-15T20:21:25.468Z,28.57
2019-05-15T20:24:18.048Z,27.93
2019-05-15T20:26:39.424Z,28.05
2019-05-15T20:32:42.404Z,30.08
2019-05-15T20:36:09.044Z,27.05
2019-05-15T20:39:18.293Z,27.62
2019-05-15T20:41:53.632Z,27.90
2019-05-15T20:44:57.818Z,27.05
2019-05-15T20:47:32.810Z,27.87
2019-05-15T20:51:18.516Z,28.92
2019-05-15T20:52:51.273Z,29.02
2019-05-15T20:56:05.235Z,28.75
2019-05-15T20:58:19.368Z,29.50
2019-05-15T21:01:04.458Z,29.75
2019-05-15T21:03:30.648Z,30.75
2019-05-15T21:06:08.800Z,29.32
2019-05-15T21:08:57.839Z,28.75
2019-05-15T21:11:48.856Z,27.17
2019-05-15T21:14:24.867Z,25.92
2019-05-15T21:16:59.063Z,26.57
2019-05-15T21:19:38.439Z,25.65
2019-05-15T21:22:10.979Z,24.95
2019-05-15T21:24:42.421Z,24.12
2019-05-15T21:27:25.548Z,26.07
2019-05-15T21:29:53.843Z,25.80
2019-05-15T21:32:30.333Z,25.23
2019-05-15T21:35:02.772Z,26.30
2019-05-15T21:37:54.791Z,27.60
2019-05-15T21:40:17.991Z,27.30
2019-05-15T21:46:51.058Z,28.17
2019-05-15T21:49:40.081Z,29.30
2019-05-15T21:52:22.063Z,28.67
2019-05-15T21:55:00.281Z,28.70
2019-05-15T21:58:08.739Z,29.02
2019-05-15T22:00:40.396Z,28.47
2019-05-15T22:03:17.790Z,27.80
2019-05-15T22:05:49.924Z,27.85
2019-05-15T22:08:55.431Z,28.12
2019-05-15T22:18:38.468Z,26.37
2019-05-15T22:21:34.161Z,25.60
2019-05-15T22:24:14.936Z,24.75
2019-05-15T22:27:00.408Z,25.05
2019-05-15T22:32:41.633Z,23.77
2019-05-15T22:35:18.662Z,25.17
2019-05-15T22:37:54.330Z,25.62
2019-05-15T22:40:33.987Z,23.95
2019-05-15T22:47:52.406Z,24.02
2019-05-15T22:48:59.809Z,23.98
2019-05-15T22:51:19.868Z,24.63
2019-05-15T22:53:59.639Z,22.82
2019-05-15T22:56:37.879Z,23.20
2019-05-15T22:59:16.156Z,24.52
2019-05-15T23:01:58.197Z,23.00
2019-05-15T23:04:41.425Z,24.18
2019-05-15T23:20:19.446Z,22.77
2019-05-15T23:24:54.576Z,23.57
2019-05-15T23:25:57.886Z,23.38
2019-05-15T23:28:45.064Z,23.10
2019-05-15T23:31:34.247Z,23.47
2019-05-15T23:33:59.573Z,23.25
2019-05-15T23:37:00.003Z,22.22
2019-05-15T23:39:42.520Z,22.77
2019-05-15T23:42:18.424Z,21.85
2019-05-15T23:44:53.372Z,21.33
2019-05-15T23:47:49.894Z,20.57
2019-05-15T23:50:38.190Z,18.67
2019-05-15T23:53:58.746Z,19.75
2019-05-15T23:56:09.478Z,18.95
2019-05-15T23:59:56.192Z,18.70
